Time,TemperatureF,DewpointF,PressureIn,WindDirection,WindDirectionDegrees,WindSpeedMPH,WindSpeedGustMPH,Humidity,HourlyPrecipIn,Conditions,Clouds,dailyrainin,SoftwareType,DateUTC
2013-01-07 00:00:00,14.5,6.6,30.12,South,180,4.0,5.0,70,0.00,,,0.00,meteohub,2013-01-07 06:00:00,
2013-01-07 00:05:00,14.7,6.8,30.12,SE,135,4.0,5.0,70,0.00,,,0.00,meteohub,2013-01-07 06:05:00,
2013-01-07 00:10:00,15.3,7.9,30.12,SE,135,4.0,5.0,72,0.00,,,0.00,meteohub,2013-01-07 06:10:00,
2013-01-07 00:15:00,15.4,8.1,30.12,SE,135,5.0,5.0,72,0.00,,,0.00,meteohub,2013-01-07 06:15:00,
2013-01-07 00:20:00,15.4,8.1,30.11,SE,135,4.0,5.0,72,0.00,,,0.00,meteohub,2013-01-07 06:20:00,
2013-01-07 00:25:00,15.3,7.5,30.11,South,180,5.0,6.0,71,0.00,,,0.00,meteohub,2013-01-07 06:25:00,
2013-01-07 00:30:00,15.1,7.3,30.11,SE,135,6.0,6.0,71,0.00,,,0.00,meteohub,2013-01-07 06:30:00,
2013-01-07 00:35:00,15.1,7.3,30.11,South,180,4.0,6.0,71,0.00,,,0.00,meteohub,2013-01-07 06:35:00,
2013-01-07 00:40:00,14.4,6.6,30.11,South,180,6.0,6.0,71,0.00,,,0.00,meteohub,2013-01-07 06:40:00,
2013-01-07 00:46:00,14.0,6.3,30.11,SE,135,4.0,6.0,71,0.00,,,0.00,meteohub,2013-01-07 06:46:00,
2013-01-07 00:51:00,14.0,6.3,30.11,South,180,6.0,7.0,71,0.00,,,0.00,meteohub,2013-01-07 06:51:00,
2013-01-07 00:56:00,14.2,7.2,30.12,South,180,8.0,8.0,73,0.00,,,0.00,meteohub,2013-01-07 06:56:00,
2013-01-07 01:01:00,14.7,7.7,30.11,South,180,7.0,8.0,73,0.00,,,0.00,meteohub,2013-01-07 07:01:00,
2013-01-07 01:06:00,15.1,8.2,30.11,South,180,7.0,9.0,74,0.00,,,0.00,meteohub,2013-01-07 07:06:00,
2013-01-07 01:11:00,14.9,7.9,30.10,South,180,8.0,9.0,73,0.00,,,0.00,meteohub,2013-01-07 07:11:00,
2013-01-07 01:16:00,14.9,7.9,30.10,South,180,9.0,9.0,73,0.00,,,0.00,meteohub,2013-01-07 07:16:00,
2013-01-07 01:21:00,15.3,8.4,30.10,South,180,7.0,9.0,74,0.00,,,0.00,meteohub,2013-01-07 07:21:00,
2013-01-07 01:26:00,15.4,8.6,30.10,South,180,9.0,9.0,74,0.00,,,0.00,meteohub,2013-01-07 07:26:00,
2013-01-07 01:31:00,15.8,8.6,30.10,South,180,8.0,10.0,73,0.00,,,0.00,meteohub,2013-01-07 07:31:00,
2013-01-07 01:36:00,15.8,8.6,30.10,South,180,8.0,10.0,73,0.00,,,0.00,meteohub,2013-01-07 07:36:00,
2013-01-07 01:41:00,15.4,8.6,30.10,South,180,9.0,10.0,74,0.00,,,0.00,meteohub,2013-01-07 07:41:00,
2013-01-07 01:46:00,15.6,8.8,30.10,South,180,11.0,11.0,74,0.00,,,0.00,meteohub,2013-01-07 07:46:00,
2013-01-07 01:51:00,16.0,8.8,30.10,South,180,8.0,11.0,73,0.00,,,0.00,meteohub,2013-01-07 07:51:00,
2013-01-07 01:56:00,16.0,8.8,30.10,South,180,7.0,11.0,73,0.00,,,0.00,meteohub,2013-01-07 07:56:00,
2013-01-07 02:01:00,16.0,8.8,30.10,South,180,8.0,11.0,73,0.00,,,0.00,meteohub,2013-01-07 08:01:00,
2013-01-07 02:06:00,16.0,8.8,30.10,South,180,6.0,10.0,73,0.00,,,0.00,meteohub,2013-01-07 08:06:00,
2013-01-07 02:12:00,16.0,8.8,30.10,South,180,6.0,9.0,73,0.00,,,0.00,meteohub,2013-01-07 08:12:00,
2013-01-07 02:17:00,15.8,8.4,30.10,South,180,6.0,9.0,72,0.00,,,0.00,meteohub,2013-01-07 08:17:00,
2013-01-07 02:22:00,15.8,8.6,30.10,South,180,8.0,9.0,73,0.00,,,0.00,meteohub,2013-01-07 08:22:00,
2013-01-07 02:27:00,16.0,8.8,30.10,South,180,7.0,8.0,73,0.00,,,0.00,meteohub,2013-01-07 08:27:00,
2013-01-07 02:32:00,16.2,9.0,30.10,South,180,10.0,10.0,73,0.00,,,0.00,meteohub,2013-01-07 08:32:00,
2013-01-07 02:37:00,16.5,9.3,30.09,SE,135,7.0,10.0,73,0.00,,,0.00,meteohub,2013-01-07 08:37:00,
2013-01-07 02:42:00,16.7,9.5,30.09,South,180,9.0,10.0,73,0.00,,,0.00,meteohub,2013-01-07 08:42:00,
2013-01-07 02:47:00,16.7,9.3,30.09,South,180,11.0,11.0,72,0.00,,,0.00,meteohub,2013-01-07 08:47:00,
2013-01-07 02:52:00,16.7,9.3,30.09,South,180,10.0,11.0,72,0.00,,,0.00,meteohub,2013-01-07 08:52:00,
2013-01-07 02:57:00,16.5,9.1,30.09,South,180,10.0,11.0,72,0.00,,,0.00,meteohub,2013-01-07 08:57:00,
2013-01-07 03:02:00,16.5,9.1,30.09,South,180,9.0,12.0,72,0.00,,,0.00,meteohub,2013-01-07 09:02:00,
2013-01-07 03:07:00,16.3,9.0,30.08,South,180,8.0,12.0,72,0.00,,,0.00,meteohub,2013-01-07 09:07:00,
2013-01-07 03:12:00,16.5,9.1,30.08,South,180,8.0,13.0,72,0.00,,,0.00,meteohub,2013-01-07 09:12:00,
2013-01-07 03:17:00,16.5,9.1,30.08,South,180,8.0,13.0,72,0.00,,,0.00,meteohub,2013-01-07 09:17:00,
2013-01-07 03:22:00,16.7,9.3,30.08,South,180,11.0,13.0,72,0.00,,,0.00,meteohub,2013-01-07 09:22:00,
2013-01-07 03:27:00,17.1,9.7,30.08,South,180,11.0,11.0,72,0.00,,,0.00,meteohub,2013-01-07 09:27:00,
2013-01-07 03:32:00,17.1,9.7,30.08,South,180,9.0,11.0,72,0.00,,,0.00,meteohub,2013-01-07 09:32:00,
2013-01-07 03:37:00,17.4,9.9,30.08,South,180,11.0,13.0,72,0.00,,,0.00,meteohub,2013-01-07 09:37:00,
2013-01-07 03:43:00,17.4,9.7,30.08,South,180,9.0,13.0,71,0.00,,,0.00,meteohub,2013-01-07 09:43:00,
2013-01-07 03:48:00,17.4,9.7,30.08,South,180,10.0,13.0,71,0.00,,,0.00,meteohub,2013-01-07 09:48:00,
2013-01-07 03:53:00,17.2,9.1,30.08,South,180,7.0,11.0,70,0.00,,,0.00,meteohub,2013-01-07 09:53:00,
2013-01-07 03:58:00,16.9,8.8,30.08,South,180,8.0,11.0,70,0.00,,,0.00,meteohub,2013-01-07 09:58:00,
2013-01-07 04:03:00,16.3,8.2,30.07,South,180,7.0,10.0,70,0.00,,,0.00,meteohub,2013-01-07 10:03:00,
2013-01-07 04:08:00,15.8,7.7,30.07,South,180,8.0,9.0,70,0.00,,,0.00,meteohub,2013-01-07 10:08:00,
2013-01-07 04:13:00,15.1,7.3,30.07,South,180,9.0,11.0,71,0.00,,,0.00,meteohub,2013-01-07 10:13:00,
2013-01-07 04:18:00,15.3,8.2,30.07,South,180,8.0,11.0,73,0.00,,,0.00,meteohub,2013-01-07 10:18:00,
2013-01-07 04:23:00,15.8,8.4,30.07,South,180,10.0,11.0,72,0.00,,,0.00,meteohub,2013-01-07 10:23:00,
2013-01-07 04:28:00,16.3,9.1,30.07,South,180,10.0,14.0,73,0.00,,,0.00,meteohub,2013-01-07 10:28:00,
2013-01-07 04:33:00,16.9,9.7,30.07,South,180,8.0,15.0,73,0.00,,,0.00,meteohub,2013-01-07 10:33:00,
2013-01-07 04:38:00,17.4,9.9,30.07,South,180,11.0,15.0,72,0.00,,,0.00,meteohub,2013-01-07 10:38:00,
2013-01-07 04:43:00,18.1,10.4,30.06,South,180,7.0,15.0,71,0.00,,,0.00,meteohub,2013-01-07 10:43:00,
2013-01-07 04:48:00,18.0,10.2,30.06,South,180,12.0,12.0,71,0.00,,,0.00,meteohub,2013-01-07 10:48:00,
2013-01-07 04:53:00,17.8,9.7,30.06,South,180,9.0,12.0,70,0.00,,,0.00,meteohub,2013-01-07 10:53:00,
2013-01-07 04:58:00,17.1,9.0,30.07,South,180,6.0,12.0,70,0.00,,,0.00,meteohub,2013-01-07 10:58:00,
2013-01-07 05:03:00,16.3,7.9,30.06,South,180,9.0,12.0,69,0.00,,,0.00,meteohub,2013-01-07 11:03:00,
2013-01-07 05:08:00,16.3,7.9,30.07,South,180,9.0,10.0,69,0.00,,,0.00,meteohub,2013-01-07 11:08:00,
2013-01-07 05:13:00,16.5,9.1,30.06,South,180,10.0,10.0,72,0.00,,,0.00,meteohub,2013-01-07 11:13:00,
2013-01-07 05:18:00,16.7,9.3,30.06,SE,135,13.0,13.0,72,0.00,,,0.00,meteohub,2013-01-07 11:18:00,
2013-01-07 05:24:00,16.9,9.5,30.05,South,180,11.0,11.0,72,0.00,,,0.00,meteohub,2013-01-07 11:24:00,
2013-01-07 05:29:00,17.2,9.9,30.05,SW,225,8.0,13.0,72,0.00,,,0.00,meteohub,2013-01-07 11:29:00,
2013-01-07 05:34:00,17.8,10.0,30.05,South,180,11.0,13.0,71,0.00,,,0.00,meteohub,2013-01-07 11:34:00,
2013-01-07 05:39:00,18.1,10.4,30.05,South,180,8.0,12.0,71,0.00,,,0.00,meteohub,2013-01-07 11:39:00,
2013-01-07 05:44:00,18.7,10.8,30.05,South,180,11.0,12.0,71,0.00,,,0.00,meteohub,2013-01-07 11:44:00,
2013-01-07 05:49:00,18.3,10.6,30.04,South,180,13.0,13.0,71,0.00,,,0.00,meteohub,2013-01-07 11:49:00,
2013-01-07 05:54:00,18.1,10.0,30.04,South,180,11.0,11.0,70,0.00,,,0.00,meteohub,2013-01-07 11:54:00,
2013-01-07 05:59:00,18.1,10.0,30.04,South,180,11.0,13.0,70,0.00,,,0.00,meteohub,2013-01-07 11:59:00,
2013-01-07 06:04:00,18.1,10.0,30.04,South,180,11.0,13.0,70,0.00,,,0.00,meteohub,2013-01-07 12:04:00,
2013-01-07 06:09:00,18.1,10.0,30.04,South,180,13.0,13.0,70,0.00,,,0.00,meteohub,2013-01-07 12:09:00,
2013-01-07 06:14:00,18.1,10.0,30.04,South,180,8.0,13.0,70,0.00,,,0.00,meteohub,2013-01-07 12:14:00,
2013-01-07 06:19:00,18.1,10.4,30.03,SE,135,12.0,13.0,71,0.00,,,0.00,meteohub,2013-01-07 12:19:00,
2013-01-07 06:24:00,18.7,10.8,30.04,South,180,11.0,15.0,71,0.00,,,0.00,meteohub,2013-01-07 12:24:00,
2013-01-07 06:29:00,18.9,10.9,30.03,South,180,13.0,15.0,71,0.00,,,0.00,meteohub,2013-01-07 12:29:00,
2013-01-07 06:34:00,18.5,10.4,30.03,South,180,8.0,15.0,70,0.00,,,0.00,meteohub,2013-01-07 12:34:00,
2013-01-07 06:39:00,17.6,9.1,30.04,South,180,14.0,15.0,69,0.00,,,0.00,meteohub,2013-01-07 12:39:00,
2013-01-07 06:45:00,17.6,9.5,30.03,South,180,15.0,15.0,70,0.00,,,0.00,meteohub,2013-01-07 12:45:00,
2013-01-07 06:50:00,18.5,10.8,30.02,South,180,15.0,15.0,71,0.00,,,0.00,meteohub,2013-01-07 12:50:00,
2013-01-07 06:55:00,18.9,10.9,30.03,SE,135,14.0,15.0,71,0.00,,,0.00,meteohub,2013-01-07 12:55:00,
2013-01-07 07:00:00,19.2,11.3,30.02,South,180,14.0,17.0,71,0.00,,,0.00,meteohub,2013-01-07 13:00:00,
2013-01-07 07:05:00,19.8,13.1,30.02,South,180,9.0,15.0,75,0.00,,,0.00,meteohub,2013-01-07 13:05:00,
2013-01-07 07:10:00,19.2,11.3,30.02,SE,135,9.0,15.0,71,0.00,,,0.00,meteohub,2013-01-07 13:10:00,
2013-01-07 07:15:00,19.6,12.9,30.02,South,180,11.0,15.0,75,0.00,,,0.00,meteohub,2013-01-07 13:15:00,
2013-01-07 07:20:00,19.4,12.7,30.02,South,180,11.0,15.0,75,0.00,,,0.00,meteohub,2013-01-07 13:20:00,
2013-01-07 07:25:00,19.2,11.3,30.02,SE,135,11.0,15.0,71,0.00,,,0.00,meteohub,2013-01-07 13:25:00,
2013-01-07 07:30:00,19.6,12.9,30.01,SE,135,11.0,15.0,75,0.00,,,0.00,meteohub,2013-01-07 13:30:00,
2013-01-07 07:35:00,19.6,13.3,30.01,South,180,11.0,15.0,76,0.00,,,0.00,meteohub,2013-01-07 13:35:00,
2013-01-07 07:40:00,19.6,12.9,30.01,South,180,8.0,13.0,75,0.00,,,0.00,meteohub,2013-01-07 13:40:00,
2013-01-07 07:45:00,19.6,13.3,30.01,South,180,12.0,13.0,76,0.00,,,0.00,meteohub,2013-01-07 13:45:00,
2013-01-07 07:50:00,19.9,13.6,30.01,South,180,10.0,12.0,76,0.00,,,0.00,meteohub,2013-01-07 13:50:00,
2013-01-07 07:55:00,19.9,13.3,30.01,SE,135,11.0,12.0,75,0.00,,,0.00,meteohub,2013-01-07 13:55:00,
2013-01-07 08:00:00,20.3,13.6,30.01,South,180,13.0,13.0,75,0.00,,,0.00,meteohub,2013-01-07 14:00:00,
2013-01-07 08:05:00,20.7,14.0,30.01,SE,135,10.0,15.0,75,0.00,,,0.00,meteohub,2013-01-07 14:05:00,
2013-01-07 08:10:00,20.8,14.2,30.01,SE,135,8.0,15.0,75,0.00,,,0.00,meteohub,2013-01-07 14:10:00,
2013-01-07 08:16:00,21.2,14.2,30.01,SE,135,11.0,15.0,74,0.00,,,0.00,meteohub,2013-01-07 14:16:00,
2013-01-07 08:21:00,21.4,14.4,30.01,South,180,11.0,14.0,74,0.00,,,0.00,meteohub,2013-01-07 14:21:00,
2013-01-07 08:26:00,21.9,14.5,30.01,South,180,13.0,14.0,73,0.00,,,0.00,meteohub,2013-01-07 14:26:00,
2013-01-07 08:31:00,22.3,14.9,30.00,South,180,12.0,17.0,73,0.00,,,0.00,meteohub,2013-01-07 14:31:00,
2013-01-07 08:36:00,22.6,14.9,30.00,South,180,15.0,17.0,72,0.00,,,0.00,meteohub,2013-01-07 14:36:00,
2013-01-07 08:41:00,23.0,14.7,30.00,South,180,14.0,19.0,70,0.00,,,0.00,meteohub,2013-01-07 14:41:00,
2013-01-07 08:46:00,23.2,14.5,30.01,South,180,11.0,20.0,69,0.00,,,0.00,meteohub,2013-01-07 14:46:00,
2013-01-07 08:51:00,23.5,14.9,30.01,South,180,19.0,20.0,69,0.00,,,0.00,meteohub,2013-01-07 14:51:00,
2013-01-07 08:56:00,23.9,14.9,30.00,South,180,8.0,19.0,68,0.00,,,0.00,meteohub,2013-01-07 14:56:00,
2013-01-07 09:01:00,24.4,15.1,30.01,South,180,13.0,19.0,67,0.00,,,0.00,meteohub,2013-01-07 15:01:00,
2013-01-07 09:06:00,24.6,14.9,30.01,SW,225,11.0,19.0,66,0.00,,,0.00,meteohub,2013-01-07 15:06:00,
2013-01-07 09:11:00,25.2,15.1,30.01,SE,135,15.0,15.0,65,0.00,,,0.00,meteohub,2013-01-07 15:11:00,
2013-01-07 09:16:00,25.5,15.1,30.01,South,180,15.0,15.0,64,0.00,,,0.00,meteohub,2013-01-07 15:16:00,
2013-01-07 09:21:00,25.9,15.1,30.01,South,180,9.0,20.0,63,0.00,,,0.00,meteohub,2013-01-07 15:21:00,
2013-01-07 09:26:00,26.2,15.4,30.02,South,180,15.0,20.0,63,0.00,,,0.00,meteohub,2013-01-07 15:26:00,
2013-01-07 09:31:00,27.0,15.3,30.01,South,180,15.0,20.0,61,0.00,,,0.00,meteohub,2013-01-07 15:31:00,
2013-01-07 09:36:00,27.3,15.6,30.02,South,180,13.0,18.0,61,0.00,,,0.00,meteohub,2013-01-07 15:36:00,
2013-01-07 09:41:00,27.9,15.4,30.01,SW,225,13.0,20.0,59,0.00,,,0.00,meteohub,2013-01-07 15:41:00,
2013-01-07 09:46:00,28.6,17.2,30.02,South,180,17.0,24.0,62,0.00,,,0.00,meteohub,2013-01-07 15:46:00,
2013-01-07 09:51:00,29.1,17.4,30.01,SE,135,18.0,24.0,61,0.00,,,0.00,meteohub,2013-01-07 15:51:00,
2013-01-07 09:56:00,29.5,17.2,30.02,SE,135,9.0,24.0,60,0.00,,,0.00,meteohub,2013-01-07 15:56:00,
2013-01-07 10:02:00,30.2,17.2,30.02,South,180,34.0,34.0,58,0.00,,,0.00,meteohub,2013-01-07 16:02:00,
2013-01-07 10:07:00,30.4,17.1,30.02,SW,225,16.0,34.0,57,0.00,,,0.00,meteohub,2013-01-07 16:07:00,
2013-01-07 10:12:00,30.6,16.7,30.02,South,180,12.0,34.0,56,0.00,,,0.00,meteohub,2013-01-07 16:12:00,
2013-01-07 10:17:00,31.1,17.2,30.02,South,180,16.0,34.0,56,0.00,,,0.00,meteohub,2013-01-07 16:17:00,
2013-01-07 10:22:00,31.1,17.2,30.02,South,180,15.0,29.0,56,0.00,,,0.00,meteohub,2013-01-07 16:22:00,
2013-01-07 10:27:00,31.3,17.4,30.02,South,180,15.0,29.0,56,0.00,,,0.00,meteohub,2013-01-07 16:27:00,
2013-01-07 10:32:00,31.3,17.4,30.01,South,180,21.0,27.0,56,0.00,,,0.00,meteohub,2013-01-07 16:32:00,
2013-01-07 10:37:00,31.5,17.6,30.01,SE,135,17.0,27.0,56,0.00,,,0.00,meteohub,2013-01-07 16:37:00,
2013-01-07 10:42:00,31.6,17.8,30.02,SW,225,22.0,23.0,56,0.00,,,0.00,meteohub,2013-01-07 16:42:00,
2013-01-07 10:47:00,32.2,17.8,30.01,SW,225,10.0,23.0,55,0.00,,,0.00,meteohub,2013-01-07 16:47:00,
2013-01-07 10:52:00,32.4,18.0,30.02,South,180,14.0,22.0,55,0.00,,,0.00,meteohub,2013-01-07 16:52:00,
2013-01-07 10:57:00,32.5,17.8,30.02,SW,225,9.0,22.0,54,0.00,,,0.00,meteohub,2013-01-07 16:57:00,
2013-01-07 11:02:00,33.1,18.7,30.01,SW,225,15.0,18.0,55,0.00,,,0.00,meteohub,2013-01-07 17:02:00,
2013-01-07 11:07:00,32.9,18.1,30.01,SE,135,15.0,18.0,54,0.00,,,0.00,meteohub,2013-01-07 17:07:00,
2013-01-07 11:12:00,32.9,18.1,30.01,SW,225,11.0,18.0,54,0.00,,,0.00,meteohub,2013-01-07 17:12:00,
2013-01-07 11:17:00,33.1,18.3,30.00,SW,225,20.0,20.0,54,0.00,,,0.00,meteohub,2013-01-07 17:17:00,
2013-01-07 11:22:00,33.1,18.7,30.00,South,180,15.0,21.0,55,0.00,,,0.00,meteohub,2013-01-07 17:22:00,
2013-01-07 11:27:00,33.4,19.0,30.00,SW,225,11.0,21.0,55,0.00,,,0.00,meteohub,2013-01-07 17:27:00,
2013-01-07 11:32:00,33.8,18.9,30.00,SW,225,11.0,21.0,54,0.00,,,0.00,meteohub,2013-01-07 17:32:00,
2013-01-07 11:37:00,33.8,18.9,29.99,South,180,13.0,15.0,54,0.00,,,0.00,meteohub,2013-01-07 17:37:00,
2013-01-07 11:42:00,34.2,19.2,29.99,SE,135,8.0,22.0,54,0.00,,,0.00,meteohub,2013-01-07 17:42:00,
2013-01-07 11:47:00,34.3,19.0,29.98,South,180,14.0,22.0,53,0.00,,,0.00,meteohub,2013-01-07 17:47:00,
2013-01-07 11:52:00,34.7,19.8,29.97,SW,225,17.0,19.0,54,0.00,,,0.00,meteohub,2013-01-07 17:52:00,
2013-01-07 11:57:00,34.5,19.2,29.97,South,180,11.0,19.0,53,0.00,,,0.00,meteohub,2013-01-07 17:57:00,
2013-01-07 12:02:00,34.9,19.9,29.97,South,180,14.0,17.0,54,0.00,,,0.00,meteohub,2013-01-07 18:02:00,
2013-01-07 12:07:00,35.4,19.9,29.97,SW,225,8.0,17.0,53,0.00,,,0.00,meteohub,2013-01-07 18:07:00,
2013-01-07 12:12:00,36.1,20.3,29.96,SE,135,8.0,17.0,52,0.00,,,0.00,meteohub,2013-01-07 18:12:00,
2013-01-07 12:17:00,36.1,19.8,29.96,SW,225,15.0,17.0,51,0.00,,,0.00,meteohub,2013-01-07 18:17:00,
2013-01-07 12:22:00,36.3,19.9,29.96,South,180,19.0,21.0,51,0.00,,,0.00,meteohub,2013-01-07 18:22:00,
2013-01-07 12:27:00,36.7,19.8,29.95,SW,225,16.0,24.0,50,0.00,,,0.00,meteohub,2013-01-07 18:27:00,
2013-01-07 12:32:00,37.0,20.7,29.95,South,180,12.0,24.0,51,0.00,,,0.00,meteohub,2013-01-07 18:32:00,
2013-01-07 12:37:00,37.0,20.7,29.95,SW,225,13.0,24.0,51,0.00,,,0.00,meteohub,2013-01-07 18:37:00,
2013-01-07 12:42:00,36.7,19.8,29.95,SE,135,17.0,22.0,50,0.00,,,0.00,meteohub,2013-01-07 18:42:00,
2013-01-07 12:47:00,36.9,19.9,29.95,South,180,17.0,22.0,50,0.00,,,0.00,meteohub,2013-01-07 18:47:00,
2013-01-07 12:52:00,37.4,22.6,29.94,SW,225,13.0,21.0,55,0.00,,,0.00,meteohub,2013-01-07 18:52:00,
2013-01-07 12:57:00,37.8,22.6,29.95,South,180,14.0,21.0,54,0.00,,,0.00,meteohub,2013-01-07 18:57:00,
2013-01-07 13:02:00,37.4,22.3,29.95,South,180,14.0,17.0,54,0.00,,,0.00,meteohub,2013-01-07 19:02:00,
2013-01-07 13:07:00,37.4,22.3,29.95,South,180,11.0,25.0,54,0.00,,,0.00,meteohub,2013-01-07 19:07:00,
2013-01-07 13:12:00,37.8,22.6,29.95,SW,225,19.0,25.0,54,0.00,,,0.00,meteohub,2013-01-07 19:12:00,
2013-01-07 13:17:00,37.9,22.8,29.95,South,180,8.0,24.0,54,0.00,,,0.00,meteohub,2013-01-07 19:17:00,
2013-01-07 13:22:00,38.3,23.5,29.94,SW,225,13.0,19.0,55,0.00,,,0.00,meteohub,2013-01-07 19:22:00,
2013-01-07 13:27:00,38.3,23.2,29.95,SW,225,12.0,19.0,54,0.00,,,0.00,meteohub,2013-01-07 19:27:00,
2013-01-07 13:32:00,38.1,22.5,29.95,SW,225,12.0,18.0,53,0.00,,,0.00,meteohub,2013-01-07 19:32:00,
2013-01-07 13:37:00,38.7,23.4,29.96,SW,225,17.0,18.0,54,0.00,,,0.00,meteohub,2013-01-07 19:37:00,
2013-01-07 13:42:00,38.3,22.6,29.95,SW,225,17.0,18.0,53,0.00,,,0.00,meteohub,2013-01-07 19:42:00,
2013-01-07 13:47:00,38.1,23.0,29.96,SW,225,11.0,18.0,54,0.00,,,0.00,meteohub,2013-01-07 19:47:00,
2013-01-07 13:52:00,38.3,23.2,29.95,SW,225,8.0,18.0,54,0.00,,,0.00,meteohub,2013-01-07 19:52:00,
2013-01-07 13:57:00,38.5,23.7,29.95,South,180,18.0,18.0,55,0.00,,,0.00,meteohub,2013-01-07 19:57:00,
2013-01-07 14:02:00,38.7,23.4,29.95,SW,225,16.0,18.0,54,0.00,,,0.00,meteohub,2013-01-07 20:02:00,
2013-01-07 14:07:00,38.3,23.2,29.95,South,180,16.0,18.0,54,0.00,,,0.00,meteohub,2013-01-07 20:07:00,
2013-01-07 14:12:00,37.9,23.2,29.95,SW,225,17.0,20.0,55,0.00,,,0.00,meteohub,2013-01-07 20:12:00,
2013-01-07 14:17:00,38.1,23.4,29.95,South,180,8.0,21.0,55,0.00,,,0.00,meteohub,2013-01-07 20:17:00,
2013-01-07 14:22:00,38.3,23.5,29.95,South,180,17.0,21.0,55,0.00,,,0.00,meteohub,2013-01-07 20:22:00,
2013-01-07 14:26:00,38.7,23.9,29.95,SW,225,14.0,21.0,55,0.00,,,0.00,meteohub,2013-01-07 20:26:00,
2013-01-07 14:31:00,38.3,23.5,29.95,SW,225,17.0,21.0,55,0.00,,,0.00,meteohub,2013-01-07 20:31:00,
2013-01-07 14:36:00,38.1,23.4,29.95,SW,225,12.0,17.0,55,0.00,,,0.00,meteohub,2013-01-07 20:36:00,
2013-01-07 14:42:00,37.9,23.2,29.95,South,180,16.0,17.0,55,0.00,,,0.00,meteohub,2013-01-07 20:42:00,
2013-01-07 14:47:00,37.9,23.7,29.95,SW,225,10.0,17.0,56,0.00,,,0.00,meteohub,2013-01-07 20:47:00,
2013-01-07 14:52:00,37.6,23.4,29.95,South,180,16.0,16.0,56,0.00,,,0.00,meteohub,2013-01-07 20:52:00,
2013-01-07 14:57:00,37.4,23.2,29.95,SE,135,10.0,16.0,56,0.00,,,0.00,meteohub,2013-01-07 20:57:00,
2013-01-07 15:02:00,37.2,21.2,29.96,SW,225,11.0,16.0,52,0.00,,,0.00,meteohub,2013-01-07 21:02:00,
2013-01-07 15:07:00,37.6,23.7,29.95,SW,225,13.0,16.0,57,0.00,,,0.00,meteohub,2013-01-07 21:07:00,
2013-01-07 15:12:00,37.9,24.1,29.96,SW,225,11.0,13.0,57,0.00,,,0.00,meteohub,2013-01-07 21:12:00,
2013-01-07 15:17:00,38.1,23.9,29.96,South,180,11.0,15.0,56,0.00,,,0.00,meteohub,2013-01-07 21:17:00,
2013-01-07 15:22:00,37.9,24.1,29.96,South,180,8.0,15.0,57,0.00,,,0.00,meteohub,2013-01-07 21:22:00,
2013-01-07 15:27:00,37.4,23.5,29.96,South,180,10.0,15.0,57,0.00,,,0.00,meteohub,2013-01-07 21:27:00,
2013-01-07 15:32:00,37.0,21.6,29.96,South,180,17.0,17.0,53,0.00,,,0.00,meteohub,2013-01-07 21:32:00,
2013-01-07 15:37:00,37.0,21.6,29.96,South,180,17.0,23.0,53,0.00,,,0.00,meteohub,2013-01-07 21:37:00,
2013-01-07 15:42:00,36.9,21.7,29.96,SW,225,12.0,23.0,54,0.00,,,0.00,meteohub,2013-01-07 21:42:00,
2013-01-07 15:47:00,36.7,21.6,29.96,South,180,15.0,21.0,54,0.00,,,0.00,meteohub,2013-01-07 21:47:00,
2013-01-07 15:52:00,36.7,21.6,29.96,South,180,12.0,19.0,54,0.00,,,0.00,meteohub,2013-01-07 21:52:00,
2013-01-07 15:57:00,36.3,21.7,29.96,South,180,11.0,19.0,55,0.00,,,0.00,meteohub,2013-01-07 21:57:00,
2013-01-07 16:02:00,36.3,21.7,29.96,South,180,13.0,17.0,55,0.00,,,0.00,meteohub,2013-01-07 22:02:00,
2013-01-07 16:07:00,36.3,21.7,29.96,SW,225,15.0,16.0,55,0.00,,,0.00,meteohub,2013-01-07 22:07:00,
2013-01-07 16:12:00,36.5,21.9,29.96,South,180,9.0,17.0,55,0.00,,,0.00,meteohub,2013-01-07 22:12:00,
2013-01-07 16:17:00,36.3,21.7,29.96,South,180,10.0,17.0,55,0.00,,,0.00,meteohub,2013-01-07 22:17:00,
2013-01-07 16:22:00,35.8,21.6,29.96,South,180,8.0,17.0,56,0.00,,,0.00,meteohub,2013-01-07 22:22:00,
2013-01-07 16:27:00,35.6,21.9,29.96,SW,225,11.0,11.0,57,0.00,,,0.00,meteohub,2013-01-07 22:27:00,
2013-01-07 16:32:00,35.6,21.9,29.95,South,180,10.0,15.0,57,0.00,,,0.00,meteohub,2013-01-07 22:32:00,
2013-01-07 16:37:00,35.8,22.1,29.95,SW,225,9.0,15.0,57,0.00,,,0.00,meteohub,2013-01-07 22:37:00,
2013-01-07 16:42:00,35.4,22.5,29.96,SW,225,9.0,15.0,59,0.00,,,0.00,meteohub,2013-01-07 22:42:00,
2013-01-07 16:47:00,35.2,22.3,29.95,South,180,8.0,16.0,59,0.00,,,0.00,meteohub,2013-01-07 22:47:00,
2013-01-07 16:52:00,35.2,22.3,29.95,South,180,7.0,16.0,59,0.00,,,0.00,meteohub,2013-01-07 22:52:00,
2013-01-07 16:57:00,35.1,22.6,29.95,South,180,6.0,12.0,60,0.00,,,0.00,meteohub,2013-01-07 22:57:00,
2013-01-07 17:02:00,35.2,22.8,29.95,SW,225,8.0,12.0,60,0.00,,,0.00,meteohub,2013-01-07 23:02:00,
2013-01-07 17:07:00,35.1,22.6,29.95,South,180,6.0,11.0,60,0.00,,,0.00,meteohub,2013-01-07 23:07:00,
2013-01-07 17:12:00,35.1,22.6,29.95,South,180,13.0,13.0,60,0.00,,,0.00,meteohub,2013-01-07 23:12:00,
2013-01-07 17:17:00,35.2,22.8,29.95,South,180,11.0,17.0,60,0.00,,,0.00,meteohub,2013-01-07 23:17:00,
2013-01-07 17:22:00,34.9,22.8,29.95,South,180,9.0,17.0,61,0.00,,,0.00,meteohub,2013-01-07 23:22:00,
2013-01-07 17:27:00,34.5,22.5,29.95,South,180,15.0,17.0,61,0.00,,,0.00,meteohub,2013-01-07 23:27:00,
2013-01-07 17:32:00,34.9,23.2,29.95,SW,225,12.0,15.0,62,0.00,,,0.00,meteohub,2013-01-07 23:32:00,
2013-01-07 17:37:00,34.7,23.0,29.94,South,180,9.0,16.0,62,0.00,,,0.00,meteohub,2013-01-07 23:37:00,
2013-01-07 17:42:00,34.3,22.6,29.95,South,180,9.0,16.0,62,0.00,,,0.00,meteohub,2013-01-07 23:42:00,
2013-01-07 17:47:00,34.5,22.8,29.95,SE,135,7.0,16.0,62,0.00,,,0.00,meteohub,2013-01-07 23:47:00,
2013-01-07 17:52:00,34.5,22.8,29.95,SW,225,11.0,14.0,62,0.00,,,0.00,meteohub,2013-01-07 23:52:00,
2013-01-07 17:57:00,34.3,22.6,29.95,South,180,9.0,14.0,62,0.00,,,0.00,meteohub,2013-01-07 23:57:00,
2013-01-07 18:02:00,34.5,22.8,29.95,South,180,8.0,12.0,62,0.00,,,0.00,meteohub,2013-01-08 00:02:00,
2013-01-07 18:07:00,34.5,22.8,29.95,South,180,14.0,15.0,62,0.00,,,0.00,meteohub,2013-01-08 00:07:00,
2013-01-07 18:12:00,34.5,22.8,29.95,SW,225,7.0,17.0,62,0.00,,,0.00,meteohub,2013-01-08 00:12:00,
2013-01-07 18:17:00,34.3,22.6,29.94,South,180,13.0,17.0,62,0.00,,,0.00,meteohub,2013-01-08 00:17:00,
2013-01-07 18:22:00,34.3,22.6,29.95,South,180,6.0,17.0,62,0.00,,,0.00,meteohub,2013-01-08 00:22:00,
2013-01-07 18:27:00,34.0,22.6,29.95,South,180,5.0,13.0,63,0.00,,,0.00,meteohub,2013-01-08 00:27:00,
2013-01-07 18:32:00,33.8,22.5,29.95,SW,225,10.0,13.0,63,0.00,,,0.00,meteohub,2013-01-08 00:32:00,
2013-01-07 18:37:00,33.6,23.2,29.95,SW,225,8.0,10.0,65,0.00,,,0.00,meteohub,2013-01-08 00:37:00,
2013-01-07 18:42:00,33.4,23.0,29.94,South,180,6.0,11.0,65,0.00,,,0.00,meteohub,2013-01-08 00:42:00,
2013-01-07 18:47:00,33.3,22.8,29.94,South,180,7.0,11.0,65,0.00,,,0.00,meteohub,2013-01-08 00:47:00,
2013-01-07 18:52:00,32.9,22.8,29.94,SW,225,8.0,11.0,66,0.00,,,0.00,meteohub,2013-01-08 00:52:00,
2013-01-07 18:57:00,33.1,23.4,29.94,NE,45,8.0,11.0,67,0.00,,,0.00,meteohub,2013-01-08 00:57:00,
2013-01-07 19:02:00,32.9,23.2,29.94,South,180,7.0,13.0,67,0.00,,,0.00,meteohub,2013-01-08 01:02:00,
2013-01-07 19:07:00,32.9,23.2,29.94,South,180,8.0,13.0,67,0.00,,,0.00,meteohub,2013-01-08 01:07:00,
2013-01-07 19:12:00,33.3,23.5,29.94,South,180,12.0,13.0,67,0.00,,,0.00,meteohub,2013-01-08 01:12:00,
2013-01-07 19:17:00,33.3,23.5,29.94,SW,225,10.0,14.0,67,0.00,,,0.00,meteohub,2013-01-08 01:17:00,
2013-01-07 19:22:00,32.9,23.2,29.94,South,180,5.0,14.0,67,0.00,,,0.00,meteohub,2013-01-08 01:22:00,
2013-01-07 19:27:00,32.7,23.0,29.94,South,180,7.0,12.0,67,0.00,,,0.00,meteohub,2013-01-08 01:27:00,
2013-01-07 19:32:00,32.7,23.0,29.94,South,180,8.0,11.0,67,0.00,,,0.00,meteohub,2013-01-08 01:32:00,
2013-01-07 19:37:00,32.7,23.0,29.93,South,180,8.0,11.0,67,0.00,,,0.00,meteohub,2013-01-08 01:37:00,
2013-01-07 19:42:00,32.5,23.2,29.93,South,180,10.0,13.0,68,0.00,,,0.00,meteohub,2013-01-08 01:42:00,
2013-01-07 19:47:00,32.5,23.2,29.94,SW,225,11.0,17.0,68,0.00,,,0.00,meteohub,2013-01-08 01:47:00,
2013-01-07 19:52:00,32.5,23.2,29.93,South,180,8.0,17.0,68,0.00,,,0.00,meteohub,2013-01-08 01:52:00,
2013-01-07 19:57:00,32.4,23.0,29.94,South,180,8.0,17.0,68,0.00,,,0.00,meteohub,2013-01-08 01:57:00,
2013-01-07 20:02:00,32.4,23.0,29.94,SW,225,6.0,11.0,68,0.00,,,0.00,meteohub,2013-01-08 02:02:00,
2013-01-07 20:07:00,32.4,23.0,29.94,SW,225,6.0,11.0,68,0.00,,,0.00,meteohub,2013-01-08 02:07:00,
2013-01-07 20:12:00,32.4,23.0,29.94,South,180,8.0,11.0,68,0.00,,,0.00,meteohub,2013-01-08 02:12:00,
2013-01-07 20:17:00,32.5,23.2,29.94,South,180,8.0,11.0,68,0.00,,,0.00,meteohub,2013-01-08 02:17:00,
2013-01-07 20:22:00,32.4,23.0,29.94,WSW,248,8.0,13.0,68,0.00,,,0.00,meteohub,2013-01-08 02:22:00,
2013-01-07 20:27:00,32.7,23.4,29.94,SW,225,11.0,13.0,68,0.00,,,0.00,meteohub,2013-01-08 02:27:00,
2013-01-07 20:32:00,32.4,23.0,29.94,SW,225,11.0,13.0,68,0.00,,,0.00,meteohub,2013-01-08 02:32:00,
2013-01-07 20:37:00,32.5,23.2,29.94,SW,225,13.0,13.0,68,0.00,,,0.00,meteohub,2013-01-08 02:37:00,
2013-01-07 20:42:00,32.5,23.2,29.94,South,180,11.0,15.0,68,0.00,,,0.00,meteohub,2013-01-08 02:42:00,
2013-01-07 20:47:00,32.5,23.2,29.94,South,180,12.0,15.0,68,0.00,,,0.00,meteohub,2013-01-08 02:47:00,
2013-01-07 20:52:00,32.7,23.4,29.94,SW,225,13.0,14.0,68,0.00,,,0.00,meteohub,2013-01-08 02:52:00,
2013-01-07 20:57:00,32.7,23.4,29.94,SW,225,12.0,13.0,68,0.00,,,0.00,meteohub,2013-01-08 02:57:00,
2013-01-07 21:02:00,32.5,23.2,29.94,SW,225,8.0,15.0,68,0.00,,,0.00,meteohub,2013-01-08 03:02:00,
2013-01-07 21:07:00,32.5,23.2,29.94,SW,225,10.0,15.0,68,0.00,,,0.00,meteohub,2013-01-08 03:07:00,
2013-01-07 21:12:00,32.4,23.0,29.94,South,180,13.0,15.0,68,0.00,,,0.00,meteohub,2013-01-08 03:12:00,
2013-01-07 21:17:00,32.4,23.0,29.94,South,180,10.0,15.0,68,0.00,,,0.00,meteohub,2013-01-08 03:17:00,
2013-01-07 21:22:00,32.4,23.0,29.93,SW,225,11.0,15.0,68,0.00,,,0.00,meteohub,2013-01-08 03:22:00,
2013-01-07 21:27:00,32.0,23.0,29.93,South,180,9.0,15.0,69,0.00,,,0.00,meteohub,2013-01-08 03:27:00,
2013-01-07 21:32:00,32.2,23.2,29.93,SW,225,10.0,15.0,69,0.00,,,0.00,meteohub,2013-01-08 03:32:00,
2013-01-07 21:37:00,32.0,23.0,29.93,SW,225,11.0,15.0,69,0.00,,,0.00,meteohub,2013-01-08 03:37:00,
2013-01-07 21:42:00,32.0,23.0,29.93,NW,315,9.0,15.0,69,0.00,,,0.00,meteohub,2013-01-08 03:42:00,
2013-01-07 21:47:00,32.0,23.0,29.93,SW,225,14.0,14.0,69,0.00,,,0.00,meteohub,2013-01-08 03:47:00,
2013-01-07 21:52:00,32.2,23.2,29.93,SW,225,14.0,14.0,69,0.00,,,0.00,meteohub,2013-01-08 03:52:00,
2013-01-07 21:57:00,32.2,23.2,29.94,South,180,11.0,14.0,69,0.00,,,0.00,meteohub,2013-01-08 03:57:00,
2013-01-07 22:02:00,32.2,23.2,29.93,SW,225,8.0,14.0,69,0.00,,,0.00,meteohub,2013-01-08 04:02:00,
2013-01-07 22:07:00,32.2,23.2,29.93,SW,225,8.0,14.0,69,0.00,,,0.00,meteohub,2013-01-08 04:07:00,
2013-01-07 22:12:00,32.0,23.0,29.93,SW,225,11.0,14.0,69,0.00,,,0.00,meteohub,2013-01-08 04:12:00,
2013-01-07 22:17:00,32.0,23.0,29.93,South,180,8.0,11.0,69,0.00,,,0.00,meteohub,2013-01-08 04:17:00,
2013-01-07 22:22:00,31.8,23.5,29.92,SW,225,8.0,11.0,71,0.00,,,0.00,meteohub,2013-01-08 04:22:00,
2013-01-07 22:27:00,31.8,23.5,29.92,South,180,8.0,11.0,71,0.00,,,0.00,meteohub,2013-01-08 04:27:00,
2013-01-07 22:32:00,31.6,23.4,29.92,South,180,11.0,11.0,71,0.00,,,0.00,meteohub,2013-01-08 04:32:00,
2013-01-07 22:37:00,31.6,23.4,29.92,South,180,8.0,11.0,71,0.00,,,0.00,meteohub,2013-01-08 04:37:00,
2013-01-07 22:42:00,31.3,23.0,29.92,South,180,10.0,11.0,71,0.00,,,0.00,meteohub,2013-01-08 04:42:00,
2013-01-07 22:47:00,31.3,23.4,29.92,South,180,8.0,11.0,72,0.00,,,0.00,meteohub,2013-01-08 04:47:00,
2013-01-07 22:52:00,31.3,23.4,29.92,SW,225,6.0,11.0,72,0.00,,,0.00,meteohub,2013-01-08 04:52:00,
2013-01-07 22:57:00,30.9,23.0,29.92,SW,225,8.0,11.0,72,0.00,,,0.00,meteohub,2013-01-08 04:57:00,
2013-01-07 23:01:00,31.1,23.2,29.92,South,180,11.0,11.0,72,0.00,,,0.00,meteohub,2013-01-08 05:01:00,
2013-01-07 23:02:00,31.1,23.2,29.92,South,180,11.0,11.0,72,0.00,,,0.00,meteohub,2013-01-08 05:02:00,
2013-01-07 23:03:00,31.1,23.5,29.92,SW,225,7.0,11.0,73,0.00,,,0.00,meteohub,2013-01-08 05:03:00,
2013-01-07 23:08:00,30.9,23.4,29.93,South,180,5.0,11.0,73,0.00,,,0.00,meteohub,2013-01-08 05:08:00,
2013-01-07 23:13:00,31.3,23.7,29.92,SW,225,8.0,11.0,73,0.00,,,0.00,meteohub,2013-01-08 05:13:00,
2013-01-07 23:18:00,31.1,23.5,29.93,South,180,6.0,11.0,73,0.00,,,0.00,meteohub,2013-01-08 05:18:00,
2013-01-07 23:23:00,31.1,23.5,29.93,South,180,4.0,10.0,73,0.00,,,0.00,meteohub,2013-01-08 05:23:00,
2013-01-07 23:28:00,30.7,23.2,29.93,South,180,4.0,10.0,73,0.00,,,0.00,meteohub,2013-01-08 05:28:00,
2013-01-07 23:33:00,30.6,23.0,29.93,SW,225,4.0,8.0,73,0.00,,,0.00,meteohub,2013-01-08 05:33:00,
2013-01-07 23:38:00,30.4,22.8,29.92,SW,225,4.0,8.0,73,0.00,,,0.00,meteohub,2013-01-08 05:38:00,
2013-01-07 23:43:00,31.1,23.7,29.92,South,180,10.0,10.0,74,0.00,,,0.00,meteohub,2013-01-08 05:43:00,
2013-01-07 23:48:00,31.5,24.1,29.92,South,180,6.0,11.0,74,0.00,,,0.00,meteohub,2013-01-08 05:48:00,
2013-01-07 23:53:00,31.6,23.9,29.92,SW,225,8.0,11.0,73,0.00,,,0.00,meteohub,2013-01-08 05:53:00,
2013-01-07 23:59:00,31.6,23.9,29.92,South,180,8.0,12.0,73,0.00,,,0.00,meteohub,2013-01-08 05:59:00,